Time;durP1;ratioP1;P1;durP2;ratioP2;P2;SDS_P1;SDS_P2;PMS_P1;PMS_P2;Temp;Humidity;BMP_temperature;BMP_pressure;BME280_temperature;BME280_humidity;BME280_pressure;Samples;Min_cycle;Max_cycle;Signal;HPM_P1;HPM_P2
2022/12/25 00:01:14;;;;;;;;;;;;;;;4.47;100.00;101893.41;5060061;28;19947;-77
2022/12/25 00:03:39;;;;;;;;;;;;;;;4.43;100.00;101889.28;5061331;28;19919;-77
2022/12/25 00:06:04;;;;;;;;;;;;;;;4.41;100.00;101906.81;5061227;28;20024;-77
2022/12/25 00:08:30;;;;;;;;;;;;;;;4.35;100.00;101901.91;5061770;28;20014;-77
2022/12/25 00:11:15;;;;;;;;;;;;;;;4.28;100.00;101897.94;5060496;28;19912;-77
2022/12/25 00:13:41;;;;;;;;;;;;;;;4.17;100.00;101901.16;5067539;28;19912;-77
2022/12/25 00:16:14;;;;;;;;;;;;;;;4.15;100.00;101910.00;5061468;28;19919;-77
2022/12/25 00:18:39;;;;;;;;;;;;;;;4.08;100.00;101917.31;5062052;28;20372;-76
2022/12/25 00:21:06;;;;;;;;;;;;;;;4.04;100.00;101916.63;5067404;28;20008;-76
2022/12/25 00:23:32;;;;;;;;;;;;;;;3.97;100.00;101917.06;5061763;28;20022;-76
2022/12/25 00:25:57;;;;;;;;;;;;;;;3.94;100.00;101933.69;5061220;28;19916;-76
2022/12/25 00:28:23;;;;;;;;;;;;;;;3.93;100.00;101929.41;5044074;28;19996;-76
2022/12/25 00:30:48;;;;;;;;;;;;;;;3.89;100.00;101925.28;5061223;28;19926;-76
2022/12/25 00:33:14;;;;;;;;;;;;;;;3.90;100.00;101932.19;5068075;28;20161;-77
2022/12/25 00:35:39;;;;;;;;;;;;;;;3.90;100.00;101938.25;5059945;28;20035;-76
2022/12/25 00:38:05;;;;;;;;;;;;;;;3.86;100.00;101941.13;5061761;28;19912;-76
2022/12/25 00:40:30;;;;;;;;;;;;;;;3.82;100.00;101950.03;5059087;28;19963;-76
2022/12/25 00:42:55;;;;;;;;;;;;;;;3.82;100.00;101957.88;5061320;28;20289;-76
2022/12/25 00:45:20;;;;;;;;;;;;;;;3.81;100.00;101964.00;5060272;28;19923;-76
2022/12/25 00:47:46;;;;;;;;;;;;;;;3.79;100.00;101971.06;5061028;28;19924;-76
2022/12/25 00:50:11;;;;;;;;;;;;;;;3.83;100.00;101978.69;5060587;28;20120;-76
2022/12/25 00:52:36;;;;;;;;;;;;;;;3.83;100.00;101986.53;5043533;28;20141;-78
2022/12/25 00:55:02;;;;;;;;;;;;;;;3.81;100.00;101992.72;5059084;28;19977;-76
2022/12/25 00:57:27;;;;;;;;;;;;;;;3.78;100.00;101990.28;5060712;28;19952;-76
2022/12/25 00:59:52;;;;;;;;;;;;;;;3.75;100.00;101998.28;5059022;28;19916;-76
2022/12/25 01:02:24;;;;;;;;;;;;;;;3.73;100.00;102010.56;5060772;28;19913;-76
2022/12/25 01:04:50;;;;;;;;;;;;;;;3.75;100.00;102011.34;5061478;28;19986;-77
2022/12/25 01:07:16;;;;;;;;;;;;;;;3.74;100.00;102020.06;5061161;28;20328;-76
2022/12/25 01:12:26;;;;;;;;;;;;;;;3.69;100.00;102015.91;5060958;28;20040;-76
2022/12/25 01:14:51;;;;;;;;;;;;;;;3.69;100.00;102023.75;5060387;28;20097;-76
2022/12/25 01:17:16;;;;;;;;;;;;;;;3.70;100.00;102022.84;5062226;28;20178;-77
2022/12/25 01:19:41;;;;;;;;;;;;;;;3.74;100.00;102022.69;5059900;28;19911;-77
2022/12/25 01:22:07;;;;;;;;;;;;;;;3.76;100.00;102031.28;5059658;28;20124;-76
2022/12/25 01:24:32;;;;;;;;;;;;;;;3.74;100.00;102031.34;5062797;28;19916;-76
2022/12/25 01:26:57;;;;;;;;;;;;;;;3.73;100.00;102040.13;5064802;28;20351;-76
2022/12/25 01:29:22;;;;;;;;;;;;;;;3.73;100.00;102044.50;5065700;28;20124;-76
2022/12/25 01:31:48;;;;;;;;;;;;;;;3.72;100.00;102054.09;5046809;28;19920;-77
2022/12/25 01:34:13;;;;;;;;;;;;;;;3.68;100.00;102037.75;5064272;28;20434;-77
2022/12/25 01:36:38;;;;;;;;;;;;;;;3.71;100.00;102055.84;5063307;28;19943;-77
2022/12/25 01:39:04;;;;;;;;;;;;;;;3.74;100.00;102069.69;5063800;28;19969;-77
2022/12/25 01:41:29;;;;;;;;;;;;;;;3.73;100.00;102075.84;5064170;28;19916;-77
2022/12/25 01:43:56;;;;;;;;;;;;;;;3.74;100.00;102077.50;5064358;28;20225;-77
2022/12/25 01:46:22;;;;;;;;;;;;;;;3.69;100.00;102091.63;5062978;28;19912;-77
2022/12/25 01:48:47;;;;;;;;;;;;;;;3.66;100.00;102097.03;5063323;28;19944;-77
2022/12/25 01:51:25;;;;;;;;;;;;;;;3.68;100.00;102100.41;5063385;28;20133;-77
2022/12/25 01:53:50;;;;;;;;;;;;;;;3.67;100.00;102093.47;5064999;28;19965;-77
2022/12/25 01:56:15;;;;;;;;;;;;;;;3.67;100.00;102093.47;5045970;28;19985;-77
2022/12/25 01:58:41;;;;;;;;;;;;;;;3.70;100.00;102102.91;5047331;28;19920;-77
2022/12/25 02:01:07;;;;;;;;;;;;;;;3.71;100.00;102108.06;5064164;28;20319;-77
2022/12/25 02:03:32;;;;;;;;;;;;;;;3.69;100.00;102107.31;5063484;28;19912;-77
2022/12/25 02:05:59;;;;;;;;;;;;;;;3.66;100.00;102104.84;5062519;28;20143;-77
2022/12/25 02:08:24;;;;;;;;;;;;;;;3.64;100.00;102098.03;5064140;28;19992;-77
2022/12/25 02:10:50;;;;;;;;;;;;;;;3.66;100.00;102102.25;5062808;28;19920;-77
2022/12/25 02:13:17;;;;;;;;;;;;;;;3.69;100.00;102109.91;5063246;28;20130;-77
2022/12/25 02:15:45;;;;;;;;;;;;;;;3.76;100.00;102107.84;5063874;28;20614;-77
2022/12/25 02:18:22;;;;;;;;;;;;;;;3.79;100.00;102112.94;5064865;28;20383;-77
2022/12/25 02:21:06;;;;;;;;;;;;;;;3.83;100.00;102111.88;5063124;28;19976;-77
2022/12/25 02:23:37;;;;;;;;;;;;;;;3.88;100.00;102109.03;5063300;28;20398;-77
2022/12/25 02:26:02;;;;;;;;;;;;;;;3.96;100.00;102122.53;5063244;28;20145;-77
2022/12/25 02:28:32;;;;;;;;;;;;;;;4.00;100.00;102128.47;5063295;28;19911;-77
2022/12/25 02:31:07;;;;;;;;;;;;;;;4.05;100.00;102129.94;5061332;28;19986;-77
2022/12/25 02:36:24;;;;;;;;;;;;;;;4.27;100.00;102134.09;5064794;28;19931;-77
2022/12/25 02:41:38;;;;;;;;;;;;;;;4.50;100.00;102161.66;5062498;28;19992;-77
2022/12/25 03:06:42;;;;;;;;;;;;;;;5.16;100.00;102194.84;4980460;28;19922;-77
2022/12/25 03:11:57;;;;;;;;;;;;;;;5.21;100.00;102192.84;4980115;28;19920;-77
2022/12/25 03:17:06;;;;;;;;;;;;;;;5.26;100.00;102195.19;4981033;28;19967;-77
2022/12/25 03:27:55;;;;;;;;;;;;;;;5.35;100.00;102195.53;4980331;28;20084;-77
2022/12/25 03:31:23;;;;;;;;;;;;;;;5.39;100.00;102184.91;4979635;28;20234;-77
2022/12/25 03:33:23;;;;;;;;;;;;;;;5.44;100.00;102185.50;4980214;28;20109;-77
2022/12/25 03:36:01;;;;;;;;;;;;;;;5.51;100.00;102186.88;4980249;28;20423;-77
2022/12/25 03:45:02;;;;;;;;;;;;;;;5.61;100.00;102185.41;5062586;28;19969;-77
2022/12/25 04:37:10;;;;;;;;;;;;;;;6.03;100.00;102236.41;5060339;28;20293;-76
2022/12/25 04:39:35;;;;;;;;;;;;;;;6.03;100.00;102233.78;5061584;28;20338;-76
2022/12/25 04:42:01;;;;;;;;;;;;;;;6.03;100.00;102236.41;5061456;28;19978;-76
2022/12/25 04:44:26;;;;;;;;;;;;;;;6.03;100.00;102233.78;5060791;28;19916;-76
2022/12/25 04:46:51;;;;;;;;;;;;;;;6.01;100.00;102261.00;5062325;28;19998;-76
2022/12/25 04:49:16;;;;;;;;;;;;;;;6.04;100.00;102264.28;5044023;28;20316;-77
2022/12/25 04:51:43;;;;;;;;;;;;;;;6.06;100.00;102266.84;5061066;28;19920;-77
2022/12/25 04:54:08;;;;;;;;;;;;;;;6.09;100.00;102277.97;5077875;28;19923;-77
2022/12/25 04:56:33;;;;;;;;;;;;;;;6.13;100.00;102278.66;5061712;28;19916;-77
2022/12/25 04:58:59;;;;;;;;;;;;;;;6.14;100.00;102275.97;5060351;28;20454;-77
2022/12/25 05:01:24;;;;;;;;;;;;;;;6.17;100.00;102286.25;5060152;28;19916;-76
2022/12/25 05:03:49;;;;;;;;;;;;;;;6.20;100.00;102294.88;5063349;28;20023;-78
2022/12/25 05:06:14;;;;;;;;;;;;;;;6.23;100.00;102294.69;5061992;28;20275;-78
2022/12/25 05:08:40;;;;;;;;;;;;;;;6.27;100.00;102302.34;5064216;28;19930;-78
2022/12/25 05:11:09;;;;;;;;;;;;;;;6.29;100.00;102310.09;5062310;28;20295;-78
2022/12/25 05:13:34;;;;;;;;;;;;;;;6.29;100.00;102313.59;5062959;28;19916;-78
2022/12/25 05:16:02;;;;;;;;;;;;;;;6.30;100.00;102309.19;5063770;28;19919;-76
2022/12/25 05:18:28;;;;;;;;;;;;;;;6.31;100.00;102313.47;5062000;28;20034;-76
2022/12/25 05:20:54;;;;;;;;;;;;;;;6.33;100.00;102312.47;5059124;28;20145;-77
2022/12/25 05:23:19;;;;;;;;;;;;;;;6.37;100.00;102318.38;5059401;28;19916;-76
2022/12/25 05:25:44;;;;;;;;;;;;;;;6.38;100.00;102314.84;5061847;28;19921;-76
2022/12/25 05:28:09;;;;;;;;;;;;;;;6.37;100.00;102313.97;5045143;28;20183;-77
2022/12/25 05:30:35;;;;;;;;;;;;;;;6.38;100.00;102305.19;5060942;28;20119;-77
2022/12/25 05:33:01;;;;;;;;;;;;;;;6.38;100.00;102310.44;5061381;28;19916;-76
2022/12/25 05:35:26;;;;;;;;;;;;;;;6.41;100.00;102303.34;5059086;28;19946;-76
2022/12/25 05:37:51;;;;;;;;;;;;;;;6.40;100.00;102299.84;5058532;28;19916;-77
2022/12/25 05:40:16;;;;;;;;;;;;;;;6.43;100.00;102307.56;5061237;28;19916;-77
2022/12/25 05:42:42;;;;;;;;;;;;;;;6.47;100.00;102313.47;5060893;28;19916;-76
2022/12/25 05:45:07;;;;;;;;;;;;;;;6.48;100.00;102316.00;5075266;28;19912;-77
2022/12/25 05:47:32;;;;;;;;;;;;;;;6.51;100.00;102330.69;5060674;28;19916;-77
2022/12/25 05:49:57;;;;;;;;;;;;;;;6.51;100.00;102328.94;5060552;28;19947;-76
2022/12/25 05:52:23;;;;;;;;;;;;;;;6.55;100.00;102326.97;5044704;28;19965;-76
2022/12/25 05:54:48;;;;;;;;;;;;;;;6.57;100.00;102339.06;5061215;28;20023;-77
2022/12/25 05:57:13;;;;;;;;;;;;;;;6.63;100.00;102303.78;5059203;28;20261;-76
2022/12/25 05:59:38;;;;;;;;;;;;;;;6.65;100.00;102295.84;5060163;28;19920;-77
2022/12/25 06:02:04;;;;;;;;;;;;;;;6.65;100.00;102294.03;5060344;28;19959;-76
2022/12/25 06:04:29;;;;;;;;;;;;;;;6.65;100.00;102294.03;5044876;28;19920;-77
2022/12/25 06:06:54;;;;;;;;;;;;;;;6.65;100.00;102306.31;5058886;28;20161;-76
2022/12/25 06:09:20;;;;;;;;;;;;;;;6.66;100.00;102303.59;5063548;28;19932;-78
2022/12/25 06:11:45;;;;;;;;;;;;;;;6.65;100.00;102301.09;5063322;28;19916;-76
2022/12/25 06:14:11;;;;;;;;;;;;;;;6.65;100.00;102296.66;5071280;28;19912;-76
2022/12/25 06:16:36;;;;;;;;;;;;;;;6.64;100.00;102283.63;5069964;28;20003;-76
2022/12/25 06:19:01;;;;;;;;;;;;;;;6.64;100.00;102278.38;5063568;28;20008;-76
2022/12/25 06:21:27;;;;;;;;;;;;;;;6.67;100.00;102283.47;5064037;28;20255;-76
2022/12/25 06:23:52;;;;;;;;;;;;;;;6.67;100.00;102278.22;5063517;28;19920;-76
2022/12/25 06:26:18;;;;;;;;;;;;;;;6.68;100.00;102279.91;5063538;28;20018;-76
2022/12/25 06:28:43;;;;;;;;;;;;;;;6.73;100.00;102283.13;5063851;28;20328;-77
2022/12/25 06:31:10;;;;;;;;;;;;;;;6.74;100.00;102274.31;5063793;28;19982;-76
2022/12/25 06:33:35;;;;;;;;;;;;;;;6.76;100.00;102273.28;5071180;28;19912;-76
2022/12/25 06:36:09;;;;;;;;;;;;;;;6.77;100.00;102268.84;5063612;28;19918;-76
2022/12/25 06:38:34;;;;;;;;;;;;;;;6.76;100.00;102278.50;5065204;28;20452;-77
2022/12/25 06:41:09;;;;;;;;;;;;;;;6.77;100.00;102279.34;5062781;28;19920;-76
2022/12/25 06:43:35;;;;;;;;;;;;;;;6.75;100.00;102281.22;5065722;28;20030;-76
2022/12/25 06:46:02;;;;;;;;;;;;;;;6.78;100.00;102286.31;5064233;28;19918;-76
2022/12/25 06:48:27;;;;;;;;;;;;;;;6.77;100.00;102288.09;5063903;28;20278;-76
2022/12/25 06:50:53;;;;;;;;;;;;;;;6.76;100.00;102289.00;5062751;28;20635;-76
2022/12/25 06:53:18;;;;;;;;;;;;;;;6.77;100.00;102297.72;5062497;28;20819;-76
2022/12/25 06:55:43;;;;;;;;;;;;;;;6.77;100.00;102301.22;5063010;28;20353;-76
2022/12/25 06:58:08;;;;;;;;;;;;;;;6.76;100.00;102291.63;5063867;28;19977;-76
2022/12/25 07:00:34;;;;;;;;;;;;;;;6.77;100.00;102285.47;5062055;28;20098;-76
2022/12/25 07:02:59;;;;;;;;;;;;;;;6.81;100.00;102288.75;5062759;28;20394;-76
2022/12/25 07:05:24;;;;;;;;;;;;;;;6.79;100.00;102278.34;5063444;28;20009;-76
2022/12/25 07:07:49;;;;;;;;;;;;;;;6.82;100.00;102284.38;5063103;28;19944;-76
2022/12/25 07:10:15;;;;;;;;;;;;;;;6.80;100.00;102284.44;5045701;28;19924;-77
2022/12/25 07:12:40;;;;;;;;;;;;;;;6.80;100.00;102282.66;5046205;28;20021;-76
2022/12/25 07:15:05;;;;;;;;;;;;;;;6.82;100.00;102289.59;5062715;28;19955;-76
2022/12/25 07:17:33;;;;;;;;;;;;;;;6.80;100.00;102280.03;5045742;28;19945;-76
2022/12/25 07:19:58;;;;;;;;;;;;;;;6.82;100.00;102282.56;5061954;28;20813;-75
2022/12/25 07:22:23;;;;;;;;;;;;;;;6.80;100.00;102290.53;5062332;28;19986;-76
2022/12/25 07:24:49;;;;;;;;;;;;;;;6.83;100.00;102294.75;5060858;28;20011;-76
2022/12/25 07:27:14;;;;;;;;;;;;;;;6.83;100.00;102293.91;5061337;28;20390;-76
2022/12/25 07:29:39;;;;;;;;;;;;;;;6.86;100.00;102310.31;5044856;28;19942;-76
2022/12/25 07:32:05;;;;;;;;;;;;;;;6.85;100.00;102303.38;5044733;28;19964;-76
2022/12/25 07:34:30;;;;;;;;;;;;;;;6.88;100.00;102295.34;5044602;28;19934;-76
2022/12/25 07:36:55;;;;;;;;;;;;;;;6.89;100.00;102298.81;5062561;28;19951;-76
2022/12/25 07:39:22;;;;;;;;;;;;;;;6.92;100.00;102304.69;5045610;28;19923;-76
2022/12/25 07:41:47;;;;;;;;;;;;;;;6.94;100.00;102312.50;5061321;28;19916;-76
2022/12/25 07:44:13;;;;;;;;;;;;;;;6.93;100.00;102321.31;5062825;28;19977;-76
2022/12/25 07:46:38;;;;;;;;;;;;;;;6.96;100.00;102318.50;5061438;28;20361;-76
2022/12/25 07:49:03;;;;;;;;;;;;;;;6.98;100.00;102322.72;5062708;28;20062;-76
2022/12/25 07:51:29;;;;;;;;;;;;;;;6.99;100.00;102332.28;5061152;28;20017;-76
2022/12/25 07:53:55;;;;;;;;;;;;;;;7.01;100.00;102332.19;5045398;28;20119;-76
2022/12/25 07:56:20;;;;;;;;;;;;;;;7.00;100.00;102336.59;5064031;28;20039;-77
2022/12/25 07:58:46;;;;;;;;;;;;;;;7.00;100.00;102336.59;5062047;28;20163;-76
2022/12/25 08:01:16;;;;;;;;;;;;;;;7.02;100.00;102341.75;5063388;28;20401;-77
2022/12/25 08:03:42;;;;;;;;;;;;;;;7.03;100.00;102343.44;5062285;28;19912;-75
2022/12/25 08:06:08;;;;;;;;;;;;;;;7.02;100.00;102346.19;5059936;28;19920;-76
2022/12/25 08:08:34;;;;;;;;;;;;;;;7.04;100.00;102334.66;5062789;28;20077;-76
2022/12/25 08:11:00;;;;;;;;;;;;;;;7.07;100.00;102339.69;5064321;28;19920;-76
2022/12/25 08:13:25;;;;;;;;;;;;;;;7.07;100.00;102333.63;5063131;28;19912;-76
2022/12/25 08:15:57;;;;;;;;;;;;;;;7.07;100.00;102341.50;5060887;28;19916;-76
2022/12/25 08:18:22;;;;;;;;;;;;;;;7.09;100.00;102337.00;5062679;28;19912;-76
2022/12/25 08:20:48;;;;;;;;;;;;;;;7.10;100.00;102343.91;5060902;28;19955;-76
2022/12/25 08:23:13;;;;;;;;;;;;;;;7.10;100.00;102336.03;5052278;28;19966;-76
2022/12/25 08:25:38;;;;;;;;;;;;;;;7.07;100.00;102330.97;5061429;28;20396;-76
2022/12/25 08:28:03;;;;;;;;;;;;;;;7.07;100.00;102317.84;5062462;28;20007;-76
2022/12/25 08:30:29;;;;;;;;;;;;;;;7.08;100.00;102314.31;5061194;28;19924;-78
2022/12/25 08:32:54;;;;;;;;;;;;;;;7.09;100.00;102321.25;5044578;28;19990;-76
2022/12/25 08:35:20;;;;;;;;;;;;;;;7.09;100.00;102318.63;5045875;28;20102;-78
2022/12/25 08:37:45;;;;;;;;;;;;;;;7.12;100.00;102321.91;5061813;28;20455;-76
2022/12/25 08:40:10;;;;;;;;;;;;;;;7.15;100.00;102326.13;5062197;28;19926;-78
2022/12/25 08:42:36;;;;;;;;;;;;;;;7.17;100.00;102325.09;5060143;28;20200;-78
2022/12/25 08:45:02;;;;;;;;;;;;;;;7.22;100.00;102320.41;5062423;28;19984;-76
2022/12/25 08:47:27;;;;;;;;;;;;;;;7.24;100.00;102312.44;5061374;28;20394;-76
2022/12/25 08:49:52;;;;;;;;;;;;;;;7.28;100.00;102315.75;5062970;28;20018;-77
2022/12/25 08:52:18;;;;;;;;;;;;;;;7.29;100.00;102302.50;5061937;28;19985;-76
2022/12/25 08:54:45;;;;;;;;;;;;;;;7.30;100.00;102306.81;5059600;28;20019;-76
2022/12/25 08:57:10;;;;;;;;;;;;;;;7.31;100.00;102305.88;5061074;28;19912;-77
2022/12/25 08:59:35;;;;;;;;;;;;;;;7.29;100.00;102302.50;5062232;28;20324;-77
2022/12/25 09:02:00;;;;;;;;;;;;;;;7.29;100.00;102306.91;5061660;28;19918;-77
2022/12/25 09:04:26;;;;;;;;;;;;;;;7.32;100.00;102306.75;5062042;28;20212;-77
2022/12/25 09:06:52;;;;;;;;;;;;;;;7.33;100.00;102295.28;5059675;28;19924;-77
2022/12/25 09:09:17;;;;;;;;;;;;;;;7.32;100.00;102294.44;5062203;28;20346;-77
2022/12/25 09:11:43;;;;;;;;;;;;;;;7.34;100.00;102292.56;5061091;28;19923;-77
2022/12/25 09:14:08;;;;;;;;;;;;;;;7.36;100.00;102288.06;5061249;28;19994;-76
2022/12/25 09:16:34;;;;;;;;;;;;;;;7.36;100.00;102282.81;5059783;28;20513;-77
2022/12/25 09:18:59;;;;;;;;;;;;;;;7.34;100.00;102276.81;5062274;28;20343;-77
2022/12/25 09:21:24;;;;;;;;;;;;;;;7.36;100.00;102277.56;5045002;28;19939;-77
2022/12/25 09:23:49;;;;;;;;;;;;;;;7.39;100.00;102269.50;5044872;28;19951;-77
2022/12/25 09:26:16;;;;;;;;;;;;;;;7.41;100.00;102259.75;5061425;28;19919;-77
2022/12/25 09:28:41;;;;;;;;;;;;;;;7.44;100.00;102252.59;5062057;28;20426;-77
2022/12/25 09:31:06;;;;;;;;;;;;;;;7.44;100.00;102227.19;5062079;28;19931;-77
2022/12/25 09:33:32;;;;;;;;;;;;;;;7.47;100.00;102220.88;5062288;28;20321;-77
2022/12/25 09:35:57;;;;;;;;;;;;;;;7.47;100.00;102223.50;5064244;28;20030;-77
2022/12/25 09:38:23;;;;;;;;;;;;;;;7.46;100.00;102224.47;5062082;28;20069;-77
2022/12/25 09:40:56;;;;;;;;;;;;;;;7.48;100.00;102212.91;5062177;28;20363;-77
2022/12/25 09:43:23;;;;;;;;;;;;;;;7.50;100.00;102199.69;5063758;28;19920;-77
2022/12/25 09:45:48;;;;;;;;;;;;;;;7.50;100.00;102184.75;5049920;28;19916;-77
2022/12/25 09:48:14;;;;;;;;;;;;;;;7.51;100.00;102175.09;5066211;28;19916;-77
2022/12/25 09:50:47;;;;;;;;;;;;;;;7.46;100.00;102151.75;5066528;28;20118;-77
2022/12/25 09:53:19;;;;;;;;;;;;;;;7.46;100.00;102149.13;5067300;28;20192;-77
2022/12/25 09:56:03;;;;;;;;;;;;;;;7.47;100.00;102142.94;5065543;28;19972;-77
2022/12/25 09:58:29;;;;;;;;;;;;;;;7.46;100.00;102129.91;5063212;28;19919;-77
2022/12/25 10:01:21;;;;;;;;;;;;;;;7.49;100.00;102124.44;5066710;28;19912;-77
2022/12/25 10:03:59;;;;;;;;;;;;;;;7.47;100.00;102110.56;5067093;28;20259;-77
2022/12/25 10:06:32;;;;;;;;;;;;;;;7.49;100.00;102103.41;5066398;28;20155;-77
2022/12/25 10:09:00;;;;;;;;;;;;;;;7.45;100.00;102081.78;5072157;28;19919;-77
2022/12/25 10:11:41;;;;;;;;;;;;;;;7.39;100.00;102067.25;5064852;28;19912;-77
2022/12/25 10:14:25;;;;;;;;;;;;;;;7.46;100.00;102066.84;5063982;28;20418;-78
2022/12/25 10:17:03;;;;;;;;;;;;;;;7.39;100.00;102035.72;5064226;28;20436;-76
2022/12/25 10:19:34;;;;;;;;;;;;;;;7.38;100.00;102018.31;5063159;28;19919;-76
2022/12/25 10:22:02;;;;;;;;;;;;;;;7.41;100.00;102020.72;5063712;28;20460;-76
2022/12/25 10:24:32;;;;;;;;;;;;;;;7.41;100.00;102007.56;5062932;28;20328;-76
2022/12/25 10:27:00;;;;;;;;;;;;;;;7.40;100.00;101989.28;5064644;28;19966;-76
2022/12/25 10:29:29;;;;;;;;;;;;;;;7.43;100.00;101985.63;5081098;28;19916;-76
2022/12/25 10:31:55;;;;;;;;;;;;;;;7.44;100.00;101964.50;5061965;28;19912;-76
2022/12/25 10:34:21;;;;;;;;;;;;;;;7.45;100.00;101958.31;5062471;28;20252;-76
2022/12/25 10:36:46;;;;;;;;;;;;;;;7.44;100.00;101958.41;5062547;28;19993;-76
2022/12/25 10:39:16;;;;;;;;;;;;;;;7.45;100.00;101965.34;5064720;28;19920;-76
2022/12/25 10:41:47;;;;;;;;;;;;;;;7.49;100.00;101949.31;5063928;28;19916;-76
2022/12/25 10:44:23;;;;;;;;;;;;;;;7.49;100.00;101937.94;5063746;28;20080;-76
2022/12/25 10:46:56;;;;;;;;;;;;;;;7.52;100.00;101925.44;5064769;28;20350;-76
2022/12/25 10:49:22;;;;;;;;;;;;;;;7.53;100.00;101927.09;5063575;28;20210;-76
2022/12/25 10:51:47;;;;;;;;;;;;;;;7.55;100.00;101906.00;5063765;28;19912;-76
2022/12/25 10:54:27;;;;;;;;;;;;;;;7.56;100.00;101891.94;5063161;28;19915;-76
2022/12/25 10:56:55;;;;;;;;;;;;;;;7.58;100.00;101880.38;5063378;28;19951;-76
2022/12/25 10:59:20;;;;;;;;;;;;;;;7.61;100.00;101879.31;5061754;28;19922;-77
2022/12/25 11:01:45;;;;;;;;;;;;;;;7.60;100.00;101872.38;5063497;28;20351;-76
2022/12/25 11:04:18;;;;;;;;;;;;;;;7.62;100.00;101862.59;5063556;28;20274;-76
2022/12/25 11:06:53;;;;;;;;;;;;;;;7.68;100.00;101863.97;5064550;28;19966;-76
2022/12/25 11:09:19;;;;;;;;;;;;;;;7.68;100.00;101853.44;5062534;28;20474;-76
2022/12/25 11:11:45;;;;;;;;;;;;;;;7.70;100.00;101839.25;5062904;28;19924;-76
2022/12/25 11:14:16;;;;;;;;;;;;;;;7.72;100.00;101811.09;5063745;28;19919;-77
2022/12/25 11:16:41;;;;;;;;;;;;;;;7.74;100.00;101803.09;5063431;28;19920;-75
2022/12/25 11:19:23;;;;;;;;;;;;;;;7.78;100.00;101788.81;5061479;28;19917;-76
2022/12/25 11:21:51;;;;;;;;;;;;;;;7.82;100.00;101770.06;5062358;28;19922;-76
2022/12/25 11:24:17;;;;;;;;;;;;;;;7.84;100.00;101759.47;5063172;28;19916;-76
2022/12/25 11:26:50;;;;;;;;;;;;;;;7.93;100.00;101736.94;5063718;28;19922;-76
2022/12/25 11:29:21;;;;;;;;;;;;;;;8.00;100.00;101725.00;5061266;28;20148;-77
2022/12/25 11:31:49;;;;;;;;;;;;;;;8.09;100.00;101715.63;5062345;28;20529;-76
2022/12/25 11:34:33;;;;;;;;;;;;;;;8.09;100.00;101703.31;5063130;28;20284;-76
2022/12/25 11:37:00;;;;;;;;;;;;;;;8.12;100.00;101681.19;5062931;28;20449;-76
2022/12/25 11:39:30;;;;;;;;;;;;;;;8.10;100.00;101662.06;5063463;28;20418;-76
2022/12/25 11:42:18;;;;;;;;;;;;;;;8.09;100.00;101648.09;5063485;28;19916;-76
2022/12/25 11:44:48;;;;;;;;;;;;;;;8.12;100.00;101613.69;5056971;28;20613;-77
2022/12/25 11:47:34;;;;;;;;;;;;;;;8.07;100.00;101600.03;5063975;28;20525;-76
2022/12/25 11:50:03;;;;;;;;;;;;;;;8.07;100.00;101580.81;5068288;28;20328;-77
2022/12/25 11:52:32;;;;;;;;;;;;;;;8.09;100.00;101578.91;5061287;28;20271;-77
2022/12/25 11:55:18;;;;;;;;;;;;;;;8.15;100.00;101567.94;5062030;28;19989;-76
2022/12/25 11:57:46;;;;;;;;;;;;;;;8.14;100.00;101564.44;5068764;28;19923;-76
2022/12/25 12:00:13;;;;;;;;;;;;;;;8.16;100.00;101544.13;5063878;28;19916;-76
2022/12/25 12:02:50;;;;;;;;;;;;;;;8.16;100.00;101533.59;5068922;28;19913;-77
2022/12/25 12:05:22;;;;;;;;;;;;;;;8.20;100.00;101532.41;5062810;28;20375;-77
2022/12/25 12:07:56;;;;;;;;;;;;;;;8.19;100.00;101514.16;5068048;28;19922;-76
2022/12/25 12:10:40;;;;;;;;;;;;;;;8.21;100.00;101502.56;5063542;28;19999;-77
2022/12/25 12:13:25;;;;;;;;;;;;;;;8.23;100.00;101499.78;5061207;28;19951;-76
2022/12/25 12:15:51;;;;;;;;;;;;;;;8.18;100.00;101496.69;5063207;28;19920;-77
2022/12/25 12:18:36;;;;;;;;;;;;;;;8.19;100.00;101493.13;5062389;28;19971;-76
2022/12/25 12:21:07;;;;;;;;;;;;;;;8.21;100.00;101486.78;5068479;28;19924;-76
2022/12/25 12:23:34;;;;;;;;;;;;;;;8.24;100.00;101476.00;5063637;28;19922;-76
2022/12/25 12:26:00;;;;;;;;;;;;;;;8.21;100.00;101468.38;5068776;28;20373;-76
2022/12/25 12:28:28;;;;;;;;;;;;;;;8.21;100.00;101470.19;5063248;28;19939;-76
2022/12/25 12:31:01;;;;;;;;;;;;;;;8.16;100.00;101456.53;5062601;28;20431;-76
2022/12/25 12:33:29;;;;;;;;;;;;;;;8.18;100.00;101465.97;5069618;28;19912;-76
2022/12/25 12:35:54;;;;;;;;;;;;;;;8.18;100.00;101458.06;5062819;28;19934;-77
2022/12/25 12:38:21;;;;;;;;;;;;;;;8.17;100.00;101459.03;5061960;28;20105;-77
2022/12/25 12:40:52;;;;;;;;;;;;;;;8.17;100.00;101443.28;5059845;28;20871;-76
2022/12/25 12:43:38;;;;;;;;;;;;;;;8.20;100.00;101439.56;5063839;28;19912;-76
2022/12/25 12:46:05;;;;;;;;;;;;;;;8.19;100.00;101430.84;5062621;28;19955;-76
2022/12/25 12:48:37;;;;;;;;;;;;;;;8.20;100.00;101435.13;5061960;28;20327;-76
2022/12/25 12:51:07;;;;;;;;;;;;;;;8.20;100.00;101437.75;5062537;28;19933;-76
2022/12/25 12:53:33;;;;;;;;;;;;;;;8.19;100.00;101425.59;5060397;28;19912;-76
2022/12/25 12:56:16;;;;;;;;;;;;;;;8.21;100.00;101436.81;5061815;28;19965;-76
2022/12/25 12:58:45;;;;;;;;;;;;;;;8.23;100.00;101437.53;5062582;28;19965;-77
2022/12/25 13:01:19;;;;;;;;;;;;;;;8.21;100.00;101421.03;5062320;28;19999;-80
2022/12/25 13:03:58;;;;;;;;;;;;;;;8.17;100.00;101414.34;5062824;28;19920;-76
2022/12/25 13:06:33;;;;;;;;;;;;;;;8.18;100.00;101417.81;5061345;28;19931;-78
2022/12/25 13:09:17;;;;;;;;;;;;;;;8.19;100.00;101422.13;5060390;28;20206;-76
2022/12/25 13:11:43;;;;;;;;;;;;;;;8.17;100.00;101421.41;5061025;28;20419;-80
2022/12/25 13:14:19;;;;;;;;;;;;;;;8.13;100.00;101415.53;5062503;28;19913;-77
2022/12/25 13:16:47;;;;;;;;;;;;;;;8.13;100.00;101409.44;5062142;28;20433;-78
2022/12/25 13:19:17;;;;;;;;;;;;;;;8.12;100.00;101408.63;5063201;28;19916;-79
2022/12/25 13:21:54;;;;;;;;;;;;;;;8.15;100.00;101411.00;5066026;28;19912;-78
2022/12/25 13:24:22;;;;;;;;;;;;;;;8.19;100.00;101414.25;5066625;28;19916;-76
2022/12/25 13:26:47;;;;;;;;;;;;;;;8.22;100.00;101416.63;5065036;28;19987;-77
2022/12/25 13:29:32;;;;;;;;;;;;;;;8.26;100.00;101406.69;5065464;28;19935;-77
2022/12/25 13:31:58;;;;;;;;;;;;;;;8.29;100.00;101417.78;5065556;28;20162;-78
2022/12/25 13:34:23;;;;;;;;;;;;;;;8.32;100.00;101407.06;5072596;28;20291;-77
2022/12/25 13:36:49;;;;;;;;;;;;;;;8.40;100.00;101411.69;5064225;28;19916;-78
2022/12/25 13:39:15;;;;;;;;;;;;;;;8.37;100.00;101399.63;5064925;28;19972;-78
2022/12/25 13:42:04;;;;;;;;;;;;;;;8.39;100.00;101396.88;5064415;28;19918;-77
2022/12/25 13:44:33;;;;;;;;;;;;;;;8.36;100.00;101397.97;5065941;28;19919;-78
2022/12/25 13:47:19;;;;;;;;;;;;;;;8.37;100.00;101396.16;5060723;28;19916;-79
2022/12/25 13:49:44;;;;;;;;;;;;;;;8.35;100.00;101383.13;5062932;28;20215;-78
2022/12/25 13:52:15;;;;;;;;;;;;;;;8.36;100.00;101368.16;5063293;28;20626;-78
2022/12/25 13:55:00;;;;;;;;;;;;;;;8.34;100.00;101370.09;5064826;28;19923;-79
2022/12/25 13:57:27;;;;;;;;;;;;;;;8.35;100.00;101369.16;5063062;28;20560;-77
2022/12/25 13:59:53;;;;;;;;;;;;;;;8.38;100.00;101371.53;5064323;28;19920;-78
2022/12/25 14:02:22;;;;;;;;;;;;;;;8.39;100.00;101367.94;5063995;28;19923;-78
2022/12/25 14:04:47;;;;;;;;;;;;;;;8.45;100.00;101378.00;5069903;28;20357;-79
2022/12/25 14:07:16;;;;;;;;;;;;;;;8.50;100.00;101369.75;5062372;28;20140;-78
2022/12/25 14:09:42;;;;;;;;;;;;;;;8.52;100.00;101368.66;5063725;28;19937;-78
2022/12/25 14:12:07;;;;;;;;;;;;;;;8.58;100.00;101352.38;5079869;28;19959;-78
2022/12/25 14:14:34;;;;;;;;;;;;;;;8.54;100.00;101353.59;5062787;28;19920;-80
2022/12/25 14:16:59;;;;;;;;;;;;;;;8.56;100.00;101350.84;5068156;28;19916;-80
2022/12/25 14:19:26;;;;;;;;;;;;;;;8.57;100.00;101347.25;5061183;28;20534;-79
2022/12/25 14:21:58;;;;;;;;;;;;;;;8.60;100.00;101345.19;5065376;28;19916;-77